Time;durP1;ratioP1;P1;durP2;ratioP2;P2;SDS_P1;SDS_P2;PMS_P1;PMS_P2;Temp;Humidity;BMP_temperature;BMP_pressure;BME280_temperature;BME280_humidity;BME280_pressure;Samples;Min_cycle;Max_cycle;Signal;HPM_P1;HPM_P2
2023/12/17 00:00:48;;;;;;;10.65;5.30;;;;;;;;;;5043987;28;20723;-58
2023/12/17 00:03:14;;;;;;;9.77;4.82;;;;;;;;;;5044381;28;20037;-58
2023/12/17 00:05:40;;;;;;;16.83;5.13;;;;;;;;;;5043108;28;20118;-58
2023/12/17 00:08:06;;;;;;;17.45;6.30;;;;;;;;;;5042906;28;20047;-58
2023/12/17 00:10:32;;;;;;;11.32;4.57;;;;;;;;;;5043291;28;20217;-58
2023/12/17 00:12:58;;;;;;;12.63;4.80;;;;;;;;;;5043445;28;20705;-58
2023/12/17 00:15:24;;;;;;;9.68;4.60;;;;;;;;;;5043943;28;20098;-59
2023/12/17 00:17:50;;;;;;;15.20;4.95;;;;;;;;;;5043687;28;20199;-58
2023/12/17 00:20:16;;;;;;;15.70;5.25;;;;;;;;;;5043607;28;20044;-58
2023/12/17 00:22:42;;;;;;;14.05;4.93;;;;;;;;;;5043580;28;20044;-58
2023/12/17 00:25:08;;;;;;;12.43;4.82;;;;;;;;;;5043773;28;20803;-57
2023/12/17 00:27:34;;;;;;;16.77;5.30;;;;;;;;;;5043336;28;20502;-57
2023/12/17 00:30:00;;;;;;;13.75;5.25;;;;;;;;;;5043307;28;20474;-57
2023/12/17 00:32:26;;;;;;;13.55;4.63;;;;;;;;;;5043165;28;20502;-58
2023/12/17 00:34:52;;;;;;;10.68;4.75;;;;;;;;;;5036992;28;20052;-60
2023/12/17 00:37:18;;;;;;;12.50;4.43;;;;;;;;;;5044051;28;20048;-58
2023/12/17 00:39:44;;;;;;;13.63;5.57;;;;;;;;;;5043406;28;20470;-58
2023/12/17 00:42:11;;;;;;;12.57;4.68;;;;;;;;;;5025463;28;20103;-58
2023/12/17 00:44:36;;;;;;;13.40;4.75;;;;;;;;;;5043529;28;20044;-58
2023/12/17 00:47:03;;;;;;;15.18;5.13;;;;;;;;;;5042990;28;20689;-58
2023/12/17 00:49:29;;;;;;;12.98;5.25;;;;;;;;;;5024711;28;20072;-58
2023/12/17 00:51:55;;;;;;;15.32;4.35;;;;;;;;;;5041875;28;20108;-58
2023/12/17 00:54:21;;;;;;;16.60;4.85;;;;;;;;;;5043603;28;20749;-58
2023/12/17 00:56:47;;;;;;;15.75;4.72;;;;;;;;;;5042518;28;20045;-57
2023/12/17 00:59:12;;;;;;;13.18;4.63;;;;;;;;;;5043004;28;20099;-57
2023/12/17 01:01:39;;;;;;;11.75;4.72;;;;;;;;;;5024981;28;20053;-57
2023/12/17 01:04:05;;;;;;;12.77;4.40;;;;;;;;;;5041571;28;20179;-57
2023/12/17 01:06:31;;;;;;;9.95;4.25;;;;;;;;;;5042301;28;20056;-57
2023/12/17 01:08:57;;;;;;;12.30;3.83;;;;;;;;;;5041795;28;20049;-58
2023/12/17 01:11:23;;;;;;;13.43;4.22;;;;;;;;;;5043167;28;20415;-57
2023/12/17 01:13:49;;;;;;;11.00;4.43;;;;;;;;;;5042278;28;20402;-57
2023/12/17 01:16:15;;;;;;;10.93;3.92;;;;;;;;;;5042432;28;20588;-57
2023/12/17 01:18:41;;;;;;;13.38;4.15;;;;;;;;;;5042542;28;20048;-57
2023/12/17 01:21:07;;;;;;;10.27;4.30;;;;;;;;;;5041114;28;20041;-57
2023/12/17 01:23:33;;;;;;;9.80;4.75;;;;;;;;;;5007531;28;20063;-57
2023/12/17 01:25:59;;;;;;;12.77;4.40;;;;;;;;;;5042169;28;20461;-58
2023/12/17 01:28:25;;;;;;;19.83;4.85;;;;;;;;;;5035062;28;20490;-57
2023/12/17 01:30:51;;;;;;;10.75;4.13;;;;;;;;;;5042403;28;20052;-58
2023/12/17 01:33:17;;;;;;;13.60;5.07;;;;;;;;;;5042129;28;20064;-57
2023/12/17 01:35:43;;;;;;;14.65;4.57;;;;;;;;;;5041632;28;20414;-57
2023/12/17 01:38:09;;;;;;;13.20;4.85;;;;;;;;;;5023384;28;20080;-57
2023/12/17 01:40:35;;;;;;;14.73;5.55;;;;;;;;;;5042506;28;20646;-57
2023/12/17 01:43:03;;;;;;;14.10;4.85;;;;;;;;;;5041741;28;20045;-58
2023/12/17 01:45:29;;;;;;;21.35;4.78;;;;;;;;;;5022965;28;20100;-57
2023/12/17 01:47:55;;;;;;;10.30;4.72;;;;;;;;;;5042662;28;20137;-57
2023/12/17 01:50:21;;;;;;;18.70;5.45;;;;;;;;;;5041031;28;20041;-57
2023/12/17 01:52:47;;;;;;;15.00;4.63;;;;;;;;;;5023711;28;20052;-57
2023/12/17 01:55:14;;;;;;;16.13;4.82;;;;;;;;;;5041094;28;20052;-58
2023/12/17 01:57:40;;;;;;;10.18;4.60;;;;;;;;;;5040719;28;20123;-58
2023/12/17 02:00:07;;;;;;;13.98;4.65;;;;;;;;;;5041656;28;20044;-58
2023/12/17 02:02:33;;;;;;;13.95;5.45;;;;;;;;;;5041790;28;20047;-58
2023/12/17 02:05:01;;;;;;;17.75;4.95;;;;;;;;;;5041227;28;20487;-58
2023/12/17 02:07:27;;;;;;;16.15;5.22;;;;;;;;;;5041741;28;20408;-58
2023/12/17 02:09:53;;;;;;;12.68;5.50;;;;;;;;;;5041383;28;20061;-57
2023/12/17 02:12:29;;;;;;;18.60;5.20;;;;;;;;;;5023740;28;20102;-57
2023/12/17 02:14:55;;;;;;;12.60;5.18;;;;;;;;;;5041340;28;20045;-58
2023/12/17 02:17:32;;;;;;;12.77;5.28;;;;;;;;;;5041456;28;20035;-58
2023/12/17 02:19:58;;;;;;;14.07;5.65;;;;;;;;;;5023320;28;20056;-58
2023/12/17 02:22:25;;;;;;;16.10;5.65;;;;;;;;;;5042166;28;20044;-58
2023/12/17 02:24:51;;;;;;;13.43;5.50;;;;;;;;;;5041337;28;20371;-58
2023/12/17 02:27:21;;;;;;;13.15;5.05;;;;;;;;;;5040974;28;20045;-58
2023/12/17 02:29:47;;;;;;;14.55;5.47;;;;;;;;;;5041012;28;20068;-58
2023/12/17 02:32:14;;;;;;;15.38;5.25;;;;;;;;;;5040411;28;20037;-58
2023/12/17 02:34:40;;;;;;;10.00;4.45;;;;;;;;;;5040702;28;20056;-58
2023/12/17 02:37:06;;;;;;;14.75;4.82;;;;;;;;;;5041612;28;20098;-58
2023/12/17 02:39:32;;;;;;;16.63;4.40;;;;;;;;;;5041142;28;20441;-58
2023/12/17 02:41:58;;;;;;;12.38;5.13;;;;;;;;;;5041590;28;20086;-58
2023/12/17 02:44:24;;;;;;;19.48;6.13;;;;;;;;;;5041548;28;20049;-57
2023/12/17 02:46:51;;;;;;;15.25;5.30;;;;;;;;;;5041107;28;20037;-57
2023/12/17 02:49:17;;;;;;;17.38;5.45;;;;;;;;;;5040432;28;20806;-58
2023/12/17 02:51:43;;;;;;;14.27;5.53;;;;;;;;;;5040535;28;20037;-58
2023/12/17 02:54:09;;;;;;;11.57;4.57;;;;;;;;;;5041366;28;20414;-58
2023/12/17 02:56:41;;;;;;;15.70;5.28;;;;;;;;;;5040631;28;20815;-58
2023/12/17 02:59:08;;;;;;;14.30;4.28;;;;;;;;;;5041320;28;20045;-58
2023/12/17 03:01:34;;;;;;;12.60;4.65;;;;;;;;;;5040821;28;20048;-58
2023/12/17 03:04:00;;;;;;;12.75;4.72;;;;;;;;;;5040721;28;20099;-58
2023/12/17 03:06:26;;;;;;;10.57;4.00;;;;;;;;;;5041429;28;20724;-57
2023/12/17 03:08:52;;;;;;;16.23;4.43;;;;;;;;;;5040532;28;20053;-58
2023/12/17 03:11:18;;;;;;;14.02;4.45;;;;;;;;;;5040377;28;20135;-57
2023/12/17 03:13:45;;;;;;;12.32;4.45;;;;;;;;;;5023585;28;20098;-58
2023/12/17 03:16:11;;;;;;;8.63;4.97;;;;;;;;;;5040640;28;20053;-58
2023/12/17 03:18:37;;;;;;;13.70;3.92;;;;;;;;;;5040448;28;20052;-58
2023/12/17 03:21:04;;;;;;;18.77;4.20;;;;;;;;;;5040750;28;20047;-58
2023/12/17 03:23:30;;;;;;;13.02;4.53;;;;;;;;;;5041069;28;20041;-58
2023/12/17 03:25:56;;;;;;;10.10;4.20;;;;;;;;;;5023004;28;20132;-58
2023/12/17 03:28:22;;;;;;;13.90;5.22;;;;;;;;;;5040530;28;20823;-58
2023/12/17 03:30:48;;;;;;;7.97;4.35;;;;;;;;;;5022620;28;20040;-58
2023/12/17 03:33:14;;;;;;;15.88;4.30;;;;;;;;;;5040653;28;20380;-58
2023/12/17 03:35:40;;;;;;;11.55;4.57;;;;;;;;;;5036286;28;20041;-58
2023/12/17 03:38:06;;;;;;;13.07;4.35;;;;;;;;;;5041045;28;20052;-58
2023/12/17 03:40:32;;;;;;;16.05;4.25;;;;;;;;;;5022916;28;20326;-58
2023/12/17 03:42:58;;;;;;;14.75;4.15;;;;;;;;;;5024823;28;20069;-58
2023/12/17 03:45:24;;;;;;;16.73;4.13;;;;;;;;;;5043675;28;20154;-58
2023/12/17 03:47:50;;;;;;;14.18;5.10;;;;;;;;;;5044505;28;20131;-58
2023/12/17 03:50:17;;;;;;;11.52;4.15;;;;;;;;;;5042638;28;20406;-58
2023/12/17 03:52:44;;;;;;;10.95;4.07;;;;;;;;;;5043647;28;20099;-58
2023/12/17 03:55:11;;;;;;;11.13;3.70;;;;;;;;;;5044589;28;20056;-58
2023/12/17 03:57:37;;;;;;;9.43;4.35;;;;;;;;;;5043545;28;20117;-58
2023/12/17 04:00:03;;;;;;;18.38;5.05;;;;;;;;;;5044642;28;20454;-58
2023/12/17 04:02:29;;;;;;;13.00;4.45;;;;;;;;;;5044058;28;20142;-58
2023/12/17 04:04:55;;;;;;;12.43;5.05;;;;;;;;;;5043020;28;20098;-58
2023/12/17 04:07:22;;;;;;;11.77;5.15;;;;;;;;;;5043951;28;20140;-58
2023/12/17 04:09:48;;;;;;;17.45;4.53;;;;;;;;;;5043566;28;20125;-58
2023/12/17 04:12:14;;;;;;;10.38;4.78;;;;;;;;;;5043354;28;20448;-57
2023/12/17 04:14:40;;;;;;;9.73;4.30;;;;;;;;;;5025325;28;20067;-58
2023/12/17 04:17:07;;;;;;;12.95;4.65;;;;;;;;;;5044067;28;20075;-58
2023/12/17 04:19:33;;;;;;;11.73;4.78;;;;;;;;;;5043251;28;20060;-58
2023/12/17 04:21:59;;;;;;;10.55;4.50;;;;;;;;;;5026996;28;20033;-58
2023/12/17 04:24:25;;;;;;;12.27;4.80;;;;;;;;;;5043776;28;20047;-58
2023/12/17 04:26:51;;;;;;;10.20;4.15;;;;;;;;;;5043104;28;20128;-58
2023/12/17 04:29:18;;;;;;;9.30;4.45;;;;;;;;;;5025908;28;20099;-58
2023/12/17 04:31:44;;;;;;;13.73;5.45;;;;;;;;;;5024804;28;20875;-58
2023/12/17 04:34:11;;;;;;;14.43;5.85;;;;;;;;;;5042237;28;20549;-58
2023/12/17 04:36:37;;;;;;;12.82;5.60;;;;;;;;;;5043604;28;20061;-60
2023/12/17 04:39:03;;;;;;;15.63;5.13;;;;;;;;;;5043506;28;20044;-58
2023/12/17 04:41:29;;;;;;;14.50;5.10;;;;;;;;;;5043872;28;20048;-58
2023/12/17 04:43:55;;;;;;;11.27;5.07;;;;;;;;;;5042973;28;20037;-58
2023/12/17 04:46:22;;;;;;;6.43;4.53;;;;;;;;;;5043473;28;20043;-58
2023/12/17 04:48:48;;;;;;;9.05;4.82;;;;;;;;;;5042320;28;20044;-58
2023/12/17 04:51:15;;;;;;;10.70;4.30;;;;;;;;;;5043052;28;20044;-58
2023/12/17 04:53:41;;;;;;;11.68;4.25;;;;;;;;;;5025166;28;20081;-58
2023/12/17 04:56:07;;;;;;;9.85;4.05;;;;;;;;;;5042501;28;20068;-58
2023/12/17 04:58:33;;;;;;;10.07;4.05;;;;;;;;;;5043504;28;20522;-58
2023/12/17 05:01:00;;;;;;;12.60;4.18;;;;;;;;;;5010753;28;20176;-58
2023/12/17 05:03:26;;;;;;;11.23;4.78;;;;;;;;;;5041944;28;20546;-58
2023/12/17 05:05:52;;;;;;;9.60;3.63;;;;;;;;;;5043357;28;20056;-58
2023/12/17 05:08:18;;;;;;;7.72;3.67;;;;;;;;;;5022451;28;20051;-58
2023/12/17 05:10:44;;;;;;;15.63;4.55;;;;;;;;;;5042702;28;20053;-58
2023/12/17 05:13:10;;;;;;;10.88;3.90;;;;;;;;;;5042176;28;20047;-59
2023/12/17 05:15:36;;;;;;;9.20;3.75;;;;;;;;;;5042831;28;20080;-58
2023/12/17 05:18:02;;;;;;;14.23;4.65;;;;;;;;;;5042518;28;20055;-58
2023/12/17 05:20:28;;;;;;;9.20;3.83;;;;;;;;;;5042005;28;20041;-58
2023/12/17 05:22:54;;;;;;;8.40;4.22;;;;;;;;;;5042552;28;20384;-60
2023/12/17 05:25:21;;;;;;;9.15;3.53;;;;;;;;;;5041775;28;20064;-57
2023/12/17 05:27:47;;;;;;;10.25;3.72;;;;;;;;;;5039457;28;20085;-57
2023/12/17 05:30:13;;;;;;;9.23;3.70;;;;;;;;;;5042011;28;20053;-58
2023/12/17 05:32:39;;;;;;;11.88;4.43;;;;;;;;;;5024744;28;20049;-58
2023/12/17 05:35:06;;;;;;;9.35;3.97;;;;;;;;;;5023541;28;20059;-57
2023/12/17 05:37:32;;;;;;;8.00;3.30;;;;;;;;;;5042214;28;20048;-57
2023/12/17 05:39:58;;;;;;;19.70;4.05;;;;;;;;;;5042354;28;20041;-57
2023/12/17 05:42:24;;;;;;;10.18;3.97;;;;;;;;;;5041664;28;20492;-57
2023/12/17 05:44:50;;;;;;;8.32;3.90;;;;;;;;;;5042510;28;20083;-57
2023/12/17 05:47:17;;;;;;;18.90;4.28;;;;;;;;;;5041638;28;20041;-57
2023/12/17 05:49:43;;;;;;;11.98;4.28;;;;;;;;;;5041253;28;20049;-57
2023/12/17 05:52:09;;;;;;;9.80;4.00;;;;;;;;;;5042629;28;20111;-57
2023/12/17 05:54:35;;;;;;;7.57;4.05;;;;;;;;;;5040922;28;20701;-57
2023/12/17 05:57:02;;;;;;;10.32;4.72;;;;;;;;;;5004700;28;20064;-57
2023/12/17 05:59:28;;;;;;;10.10;5.25;;;;;;;;;;5040820;28;20532;-58
2023/12/17 06:01:54;;;;;;;12.57;4.10;;;;;;;;;;5007300;28;20546;-58
2023/12/17 06:04:20;;;;;;;9.63;3.42;;;;;;;;;;5041129;28;20045;-57
2023/12/17 06:06:46;;;;;;;6.25;2.75;;;;;;;;;;5041568;28;20052;-58
2023/12/17 06:09:13;;;;;;;9.80;2.85;;;;;;;;;;5041643;28;20049;-58
2023/12/17 06:11:39;;;;;;;10.48;3.75;;;;;;;;;;5042191;28;20048;-57
2023/12/17 06:14:05;;;;;;;8.25;2.80;;;;;;;;;;5041268;28;20051;-57
2023/12/17 06:16:31;;;;;;;6.97;2.85;;;;;;;;;;5022818;28;20132;-58
2023/12/17 06:18:57;;;;;;;11.40;3.60;;;;;;;;;;5040547;28;20128;-59
2023/12/17 06:21:26;;;;;;;10.85;3.28;;;;;;;;;;5040139;28;20517;-59
2023/12/17 06:24:02;;;;;;;12.55;3.47;;;;;;;;;;5021917;28;20044;-60
2023/12/17 06:26:28;;;;;;;8.77;3.97;;;;;;;;;;5041317;28;20071;-59
2023/12/17 06:28:54;;;;;;;10.30;3.50;;;;;;;;;;5038874;28;20087;-59
2023/12/17 06:31:20;;;;;;;10.48;3.85;;;;;;;;;;5025715;28;20104;-59
2023/12/17 06:33:46;;;;;;;7.60;3.72;;;;;;;;;;5010373;28;20045;-59
2023/12/17 06:36:12;;;;;;;8.73;4.50;;;;;;;;;;5008682;28;20041;-58
2023/12/17 06:38:41;;;;;;;13.68;5.35;;;;;;;;;;5041353;28;20491;-59
2023/12/17 06:41:10;;;;;;;13.32;5.28;;;;;;;;;;5040992;28;20041;-59
2023/12/17 06:43:36;;;;;;;12.07;4.68;;;;;;;;;;5041231;28;20411;-59
2023/12/17 06:46:04;;;;;;;12.88;4.90;;;;;;;;;;5022965;28;20486;-59
2023/12/17 06:48:30;;;;;;;13.83;5.17;;;;;;;;;;5040449;28;20045;-59
2023/12/17 06:50:56;;;;;;;12.07;5.03;;;;;;;;;;5040612;28;20049;-57
2023/12/17 06:53:22;;;;;;;12.77;5.75;;;;;;;;;;5041056;28;20048;-58
2023/12/17 06:55:48;;;;;;;13.02;5.47;;;;;;;;;;5041379;28;20518;-58
2023/12/17 06:58:14;;;;;;;10.63;5.75;;;;;;;;;;5041115;28;20124;-57
2023/12/17 07:00:40;;;;;;;10.00;5.28;;;;;;;;;;5041578;28;20045;-59
2023/12/17 07:03:07;;;;;;;14.27;4.97;;;;;;;;;;5038495;28;20041;-59
2023/12/17 07:05:33;;;;;;;9.35;4.78;;;;;;;;;;5040954;28;20077;-59
2023/12/17 07:07:59;;;;;;;19.42;5.50;;;;;;;;;;5040409;28;20044;-59
2023/12/17 07:10:25;;;;;;;10.07;4.97;;;;;;;;;;5038696;28;20049;-59
2023/12/17 07:12:51;;;;;;;10.25;4.88;;;;;;;;;;5040630;28;20128;-59
2023/12/17 07:15:18;;;;;;;16.33;5.65;;;;;;;;;;5040734;28;20550;-59
2023/12/17 07:17:44;;;;;;;14.75;5.30;;;;;;;;;;5024803;28;20087;-59
2023/12/17 07:20:10;;;;;;;15.10;5.43;;;;;;;;;;5040720;28;20106;-59
2023/12/17 07:22:37;;;;;;;12.90;5.10;;;;;;;;;;5044469;28;20048;-59
2023/12/17 07:25:03;;;;;;;17.33;5.82;;;;;;;;;;5044035;28;20032;-60
2023/12/17 07:27:29;;;;;;;13.82;5.28;;;;;;;;;;5042329;28;20124;-60
2023/12/17 07:29:55;;;;;;;14.30;5.63;;;;;;;;;;5039647;28;20085;-59
2023/12/17 07:32:21;;;;;;;11.32;6.05;;;;;;;;;;5043319;28;20068;-59
2023/12/17 07:34:47;;;;;;;16.52;7.05;;;;;;;;;;5043153;28;20044;-61
2023/12/17 07:37:13;;;;;;;19.92;12.68;;;;;;;;;;5043246;28;20402;-59
2023/12/17 07:39:39;;;;;;;12.80;6.50;;;;;;;;;;5043201;28;20120;-59
2023/12/17 07:42:05;;;;;;;18.73;7.53;;;;;;;;;;5022965;28;20682;-59
2023/12/17 07:44:31;;;;;;;15.90;7.57;;;;;;;;;;5034398;28;20056;-59
2023/12/17 07:46:57;;;;;;;15.98;7.78;;;;;;;;;;5040808;28;20044;-59
2023/12/17 07:49:24;;;;;;;19.35;7.22;;;;;;;;;;5041441;28;20080;-59
2023/12/17 07:51:50;;;;;;;13.40;6.72;;;;;;;;;;5044443;28;20124;-60
2023/12/17 07:54:16;;;;;;;14.23;7.22;;;;;;;;;;5041015;28;20478;-59
2023/12/17 07:56:42;;;;;;;14.82;6.30;;;;;;;;;;5025955;28;20052;-59
2023/12/17 07:59:08;;;;;;;14.82;7.35;;;;;;;;;;5044251;28;20037;-60
2023/12/17 08:01:34;;;;;;;16.73;7.13;;;;;;;;;;5042240;28;20060;-60
2023/12/17 08:04:01;;;;;;;14.18;7.32;;;;;;;;;;5043218;28;20033;-58
2023/12/17 08:06:27;;;;;;;14.18;6.93;;;;;;;;;;5043770;28;20051;-59
2023/12/17 08:08:53;;;;;;;17.08;7.53;;;;;;;;;;5038038;28;20059;-59
2023/12/17 08:11:20;;;;;;;14.07;7.38;;;;;;;;;;5038663;28;20045;-59
2023/12/17 08:13:46;;;;;;;15.25;7.45;;;;;;;;;;5044394;28;20529;-59
2023/12/17 08:16:13;;;;;;;15.50;7.00;;;;;;;;;;5025823;28;20047;-60
2023/12/17 08:18:39;;;;;;;13.98;7.28;;;;;;;;;;5042330;28;20156;-59
2023/12/17 08:21:05;;;;;;;13.82;6.88;;;;;;;;;;5037795;28;20044;-59
2023/12/17 08:23:31;;;;;;;18.48;7.07;;;;;;;;;;5040241;28;20048;-59
2023/12/17 08:25:57;;;;;;;15.10;6.13;;;;;;;;;;5043494;28;20037;-58
2023/12/17 08:28:23;;;;;;;15.60;7.28;;;;;;;;;;5042622;28;20080;-58
2023/12/17 08:30:49;;;;;;;18.98;8.13;;;;;;;;;;5040703;28;20044;-59
2023/12/17 08:33:15;;;;;;;18.83;7.68;;;;;;;;;;5022444;28;20585;-58
2023/12/17 08:35:42;;;;;;;18.33;7.18;;;;;;;;;;5036004;28;20045;-58
2023/12/17 08:38:08;;;;;;;34.20;19.35;;;;;;;;;;5029626;28;20045;-58
2023/12/17 08:40:37;;;;;;;15.85;7.38;;;;;;;;;;5040891;28;20542;-58
2023/12/17 08:43:03;;;;;;;20.88;7.53;;;;;;;;;;5040275;28;20055;-59
2023/12/17 08:45:29;;;;;;;15.68;7.90;;;;;;;;;;5040848;28;20104;-59
2023/12/17 08:47:56;;;;;;;19.60;7.90;;;;;;;;;;5037173;28;20527;-58
2023/12/17 08:50:22;;;;;;;20.48;8.88;;;;;;;;;;5039502;28;20041;-58
2023/12/17 08:52:48;;;;;;;17.92;8.02;;;;;;;;;;5023210;28;20463;-58
2023/12/17 08:55:14;;;;;;;22.15;9.32;;;;;;;;;;5040158;28;20498;-58
2023/12/17 08:57:40;;;;;;;22.75;9.38;;;;;;;;;;5040599;28;20383;-58
2023/12/17 09:00:07;;;;;;;27.33;8.70;;;;;;;;;;5022481;28;20063;-59
2023/12/17 09:02:36;;;;;;;23.88;10.60;;;;;;;;;;5041040;28;20048;-59
2023/12/17 09:05:03;;;;;;;27.77;9.82;;;;;;;;;;5039843;28;20104;-58
2023/12/17 09:07:29;;;;;;;22.88;10.52;;;;;;;;;;5039813;28;20072;-59
2023/12/17 09:09:55;;;;;;;25.35;9.90;;;;;;;;;;5037041;28;20057;-60
2023/12/17 09:12:21;;;;;;;19.38;9.68;;;;;;;;;;5038807;28;20052;-60
2023/12/17 09:14:47;;;;;;;21.85;10.35;;;;;;;;;;5040766;28;20059;-59
2023/12/17 09:17:13;;;;;;;28.50;10.23;;;;;;;;;;5040227;28;20597;-59
2023/12/17 09:19:39;;;;;;;27.85;10.55;;;;;;;;;;5038635;28;20136;-59
2023/12/17 09:22:05;;;;;;;24.55;10.43;;;;;;;;;;5022409;28;20103;-59
2023/12/17 09:24:31;;;;;;;38.60;11.45;;;;;;;;;;5039994;28;20048;-59
2023/12/17 09:26:57;;;;;;;26.48;11.80;;;;;;;;;;5039640;28;20045;-59
2023/12/17 09:29:23;;;;;;;25.98;11.20;;;;;;;;;;5038531;28;20563;-59
2023/12/17 09:31:50;;;;;;;26.67;11.55;;;;;;;;;;5040347;28;20148;-59
2023/12/17 09:34:16;;;;;;;23.70;11.07;;;;;;;;;;5039057;28;20792;-60
2023/12/17 09:36:42;;;;;;;30.73;11.60;;;;;;;;;;5039978;28;20045;-59
2023/12/17 09:39:08;;;;;;;25.67;11.65;;;;;;;;;;5039846;28;20045;-59
2023/12/17 09:41:34;;;;;;;29.95;11.95;;;;;;;;;;5039531;28;20056;-59
2023/12/17 09:44:00;;;;;;;25.38;11.73;;;;;;;;;;5039498;28;20049;-59
2023/12/17 09:46:27;;;;;;;32.50;11.60;;;;;;;;;;5039616;28;20098;-59
2023/12/17 09:48:53;;;;;;;30.58;13.85;;;;;;;;;;5038870;28;20049;-60
2023/12/17 09:51:20;;;;;;;31.05;13.30;;;;;;;;;;5039610;28;20144;-59
2023/12/17 09:53:46;;;;;;;30.90;13.27;;;;;;;;;;5021750;28;20048;-59
2023/12/17 09:56:12;;;;;;;30.00;13.45;;;;;;;;;;5039444;28;20047;-59
2023/12/17 09:58:38;;;;;;;38.38;13.32;;;;;;;;;;5039381;28;20044;-59
2023/12/17 10:01:05;;;;;;;34.15;13.18;;;;;;;;;;5038864;28;20123;-59
2023/12/17 10:03:31;;;;;;;28.27;12.95;;;;;;;;;;5038840;28;20041;-59
2023/12/17 10:05:57;;;;;;;30.17;13.25;;;;;;;;;;5021529;28;20405;-59
2023/12/17 10:08:23;;;;;;;31.25;12.88;;;;;;;;;;5039398;28;20045;-61
2023/12/17 10:10:49;;;;;;;30.58;12.02;;;;;;;;;;5032958;28;20063;-59
2023/12/17 10:13:22;;;;;;;27.52;11.45;;;;;;;;;;5034868;28;20053;-59
2023/12/17 10:15:49;;;;;;;31.20;12.30;;;;;;;;;;5032422;28;20053;-59
2023/12/17 10:18:16;;;;;;;27.10;12.02;;;;;;;;;;5034837;28;20406;-59
2023/12/17 10:20:42;;;;;;;31.17;12.18;;;;;;;;;;5038248;28;20128;-59
2023/12/17 10:23:08;;;;;;;34.33;13.02;;;;;;;;;;5020371;28;20560;-59
2023/12/17 10:25:34;;;;;;;26.85;12.73;;;;;;;;;;5038050;28;20041;-60
2023/12/17 10:28:00;;;;;;;27.80;11.35;;;;;;;;;;5038078;28;20067;-59
2023/12/17 10:30:33;;;;;;;28.92;11.90;;;;;;;;;;5036180;28;20466;-60
2023/12/17 10:33:00;;;;;;;27.85;11.95;;;;;;;;;;5036587;28;20049;-60
2023/12/17 10:35:26;;;;;;;27.50;11.43;;;;;;;;;;5037093;28;20115;-60
2023/12/17 10:38:08;;;;;;;26.83;11.27;;;;;;;;;;5035781;28;20605;-59
2023/12/17 10:40:36;;;;;;;26.45;11.73;;;;;;;;;;5035384;28;20115;-60
2023/12/17 10:43:04;;;;;;;25.23;11.20;;;;;;;;;;5036110;28;20084;-60
2023/12/17 10:45:31;;;;;;;25.42;11.75;;;;;;;;;;5036985;28;20049;-60
2023/12/17 10:47:59;;;;;;;25.60;11.23;;;;;;;;;;5036710;28;20453;-60
2023/12/17 10:50:26;;;;;;;26.08;11.95;;;;;;;;;;5037623;28;20069;-61
2023/12/17 10:52:52;;;;;;;24.05;10.98;;;;;;;;;;5039943;28;20513;-60
2023/12/17 10:55:18;;;;;;;19.38;9.45;;;;;;;;;;5042253;28;20049;-60
2023/12/17 10:57:52;;;;;;;22.80;9.88;;;;;;;;;;5042925;28;20053;-60
2023/12/17 11:00:20;;;;;;;25.13;10.00;;;;;;;;;;5041426;28;20040;-60
2023/12/17 11:02:47;;;;;;;23.13;9.48;;;;;;;;;;5042412;28;20068;-60
2023/12/17 11:05:13;;;;;;;17.90;8.98;;;;;;;;;;5042179;28;20456;-60
2023/12/17 11:07:39;;;;;;;17.23;8.70;;;;;;;;;;5041445;28;20052;-60
2023/12/17 11:10:06;;;;;;;17.27;8.20;;;;;;;;;;5041744;28;20055;-60
2023/12/17 11:12:34;;;;;;;17.05;8.15;;;;;;;;;;5042041;28;20068;-60
2023/12/17 11:15:00;;;;;;;25.38;8.77;;;;;;;;;;5042436;28;20096;-60
2023/12/17 11:17:27;;;;;;;20.85;8.48;;;;;;;;;;5022496;28;20634;-60
2023/12/17 11:19:56;;;;;;;19.90;8.73;;;;;;;;;;5040980;28;20068;-61
2023/12/17 11:22:23;;;;;;;13.70;7.75;;;;;;;;;;5041372;28;20129;-60
2023/12/17 11:24:58;;;;;;;20.63;7.82;;;;;;;;;;5040267;28;20059;-60
2023/12/17 11:27:24;;;;;;;16.83;9.20;;;;;;;;;;5041849;28;20041;-60
2023/12/17 11:29:50;;;;;;;19.02;8.73;;;;;;;;;;5023644;28;20502;-60
2023/12/17 11:32:17;;;;;;;16.48;8.25;;;;;;;;;;5040682;28;20048;-60
2023/12/17 11:34:48;;;;;;;17.27;8.20;;;;;;;;;;5021846;28;20063;-60
2023/12/17 11:37:17;;;;;;;15.15;8.07;;;;;;;;;;5041262;28;20056;-60
2023/12/17 11:39:44;;;;;;;17.77;8.82;;;;;;;;;;5040789;28;20056;-60
2023/12/17 11:42:10;;;;;;;15.48;8.40;;;;;;;;;;5040825;28;20449;-60
2023/12/17 11:44:42;;;;;;;19.00;9.25;;;;;;;;;;5040468;28;20049;-60
2023/12/17 11:47:08;;;;;;;17.52;8.70;;;;;;;;;;5042234;28;20494;-60
2023/12/17 11:49:34;;;;;;;17.30;8.75;;;;;;;;;;5040767;28;20268;-60
2023/12/17 11:52:09;;;;;;;35.08;20.10;;;;;;;;;;5041265;28;20433;-61
2023/12/17 11:54:35;;;;;;;18.20;8.75;;;;;;;;;;5040184;28;20043;-61
2023/12/17 11:57:02;;;;;;;18.10;9.05;;;;;;;;;;5041670;28;20128;-61
2023/12/17 11:59:34;;;;;;;17.70;8.80;;;;;;;;;;5023252;28;20049;-60
2023/12/17 12:02:02;;;;;;;25.10;10.32;;;;;;;;;;5041583;28;20049;-61
2023/12/17 12:04:37;;;;;;;21.85;10.65;;;;;;;;;;5019313;28;20049;-61
2023/12/17 12:07:03;;;;;;;24.25;11.90;;;;;;;;;;5041126;28;20048;-61
2023/12/17 12:09:29;;;;;;;27.15;11.65;;;;;;;;;;5040330;28;20053;-60
2023/12/17 12:11:55;;;;;;;30.80;12.48;;;;;;;;;;5040999;28;20052;-62
2023/12/17 12:14:21;;;;;;;26.88;11.35;;;;;;;;;;5034970;28;20115;-61
2023/12/17 12:16:47;;;;;;;26.67;10.98;;;;;;;;;;5041039;28;20040;-61
2023/12/17 12:19:13;;;;;;;27.83;12.05;;;;;;;;;;5039328;28;20453;-61
2023/12/17 12:21:39;;;;;;;30.20;13.27;;;;;;;;;;5021723;28;20088;-60
2023/12/17 12:24:09;;;;;;;25.73;12.93;;;;;;;;;;5037456;28;20045;-61
2023/12/17 12:26:35;;;;;;;30.95;14.55;;;;;;;;;;5039972;28;20052;-61
2023/12/17 12:29:03;;;;;;;34.50;15.43;;;;;;;;;;5040641;28;20037;-61
2023/12/17 12:31:29;;;;;;;27.75;13.77;;;;;;;;;;5040933;28;20565;-60
2023/12/17 12:34:05;;;;;;;38.78;14.95;;;;;;;;;;5039646;28;20130;-61
2023/12/17 12:36:45;;;;;;;30.33;14.35;;;;;;;;;;5041393;28;20045;-60
2023/12/17 12:39:12;;;;;;;29.50;14.48;;;;;;;;;;5039512;28;20049;-60
2023/12/17 12:41:43;;;;;;;30.13;13.77;;;;;;;;;;5034736;28;20052;-60
2023/12/17 12:44:12;;;;;;;30.95;13.13;;;;;;;;;;5039304;28;20057;-60
2023/12/17 12:46:38;;;;;;;;;;;;;;;;;;5022136;28;20053;-63
2023/12/17 12:49:04;;;;;;;31.80;13.40;;;;;;;;;;5039145;28;20502;-60
2023/12/17 12:51:30;;;;;;;30.83;13.63;;;;;;;;;;5040066;28;20045;-61
2023/12/17 12:53:57;;;;;;;32.50;16.20;;;;;;;;;;5040354;28;20497;-61
2023/12/17 12:56:23;;;;;;;27.08;13.05;;;;;;;;;;5042748;28;20041;-60
2023/12/17 12:58:51;;;;;;;30.08;12.82;;;;;;;;;;5042507;28;20053;-60
2023/12/17 13:01:17;;;;;;;28.63;12.93;;;;;;;;;;5037060;28;20135;-60
2023/12/17 13:03:43;;;;;;;25.95;12.07;;;;;;;;;;5041956;28;20189;-60
2023/12/17 13:06:09;;;;;;;29.10;12.65;;;;;;;;;;5041097;28;20041;-60
2023/12/17 13:08:35;;;;;;;25.00;11.45;;;;;;;;;;5024463;28;20538;-60
2023/12/17 13:11:01;;;;;;;25.25;11.32;;;;;;;;;;5042140;28;20048;-61
2023/12/17 13:13:27;;;;;;;28.65;11.55;;;;;;;;;;5041656;28;20128;-60
2023/12/17 13:15:53;;;;;;;29.52;11.68;;;;;;;;;;5041435;28;20045;-60
2023/12/17 13:18:19;;;;;;;25.33;11.77;;;;;;;;;;5041892;28;20040;-60
2023/12/17 13:20:45;;;;;;;34.78;11.50;;;;;;;;;;5041579;28;20049;-60
2023/12/17 13:23:11;;;;;;;28.35;12.55;;;;;;;;;;5039125;28;20114;-60
2023/12/17 13:25:37;;;;;;;21.40;10.70;;;;;;;;;;5039775;28;20423;-61
2023/12/17 13:28:03;;;;;;;23.60;11.20;;;;;;;;;;5039806;28;20143;-61
2023/12/17 13:30:29;;;;;;;25.02;11.90;;;;;;;;;;5039572;28;20079;-61
2023/12/17 13:33:02;;;;;;;23.73;11.63;;;;;;;;;;5039103;28;20053;-60
2023/12/17 13:35:28;;;;;;;26.80;11.85;;;;;;;;;;5031926;28;20045;-60
2023/12/17 13:37:54;;;;;;;22.80;11.70;;;;;;;;;;5021617;28;20063;-60
2023/12/17 13:40:21;;;;;;;25.75;11.88;;;;;;;;;;5039223;28;20041;-60
2023/12/17 13:42:49;;;;;;;24.50;11.18;;;;;;;;;;5038443;28;20717;-61
2023/12/17 13:45:15;;;;;;;;;;;;;;;;;;5032737;28;20128;-60
2023/12/17 13:47:41;;;;;;;24.80;12.32;;;;;;;;;;5038203;28;19931;-60
2023/12/17 13:50:07;;;;;;;37.80;12.30;;;;;;;;;;5039512;28;20064;-60
2023/12/17 13:52:34;;;;;;;36.97;11.88;;;;;;;;;;5038931;28;20044;-61
2023/12/17 13:55:02;;;;;;;27.58;11.48;;;;;;;;;;5039655;28;20166;-61
2023/12/17 13:57:28;;;;;;;25.95;12.00;;;;;;;;;;5039510;28;20414;-60
2023/12/17 13:59:55;;;;;;;21.75;11.43;;;;;;;;;;5038490;28;20041;-60
2023/12/17 14:02:23;;;;;;;26.92;12.45;;;;;;;;;;5038698;28;20094;-60
2023/12/17 14:04:49;;;;;;;31.25;12.82;;;;;;;;;;5039834;28;20045;-60
2023/12/17 14:07:15;;;;;;;28.45;12.82;;;;;;;;;;5021067;28;20056;-60
2023/12/17 14:09:41;;;;;;;63.08;15.02;;;;;;;;;;5038219;28;20573;-61
2023/12/17 14:12:08;;;;;;;26.60;11.20;;;;;;;;;;5038699;28;20073;-60
2023/12/17 14:14:34;;;;;;;28.13;12.15;;;;;;;;;;5038987;28;20560;-60
2023/12/17 14:17:01;;;;;;;23.90;11.32;;;;;;;;;;5038833;28;20056;-60
2023/12/17 14:19:34;;;;;;;53.42;11.88;;;;;;;;;;5038838;28;20624;-60
2023/12/17 14:22:00;;;;;;;27.23;11.85;;;;;;;;;;5039418;28;20056;-60
2023/12/17 14:24:26;;;;;;;24.83;11.15;;;;;;;;;;5037596;28;20057;-60